Terminal Aerodrome Forecast
Issued by NWS Hastings, NE

Home | Current Version | Previous Version | Text Only | Print | Product List | Glossary On
Versions: 1 2 3 4 5 6 7 8 9 10 11 12
000
FTUS43 KGID 232323
TAFGRI
TAF
KGRI 232323Z 2400/2424 19014G21KT P6SM BKN070
     FM240100 17009KT P6SM SCT250
     FM240300 13006KT P6SM SCT250
     FM240600 35005KT P6SM SCT200
     FM241400 02011KT P6SM BKN250=

USA.gov is the U.S. government's official web portal to all federal, state and local government web resources and services.